Time;durP1;ratioP1;P1;durP2;ratioP2;P2;SDS_P1;SDS_P2;PMS_P1;PMS_P2;Temp;Humidity;BMP_temperature;BMP_pressure;BME280_temperature;BME280_humidity;BME280_pressure;Samples;Min_cycle;Max_cycle;Signal;HPM_P1;HPM_P2
2022/05/27 00:00:17;;;;;;;0.70;0.50;;;14.90;99.90;;;;;;5064208;28;20095;-59
2022/05/27 00:02:45;;;;;;;0.90;0.40;;;14.90;99.90;;;;;;5063926;28;20137;-59
2022/05/27 00:05:12;;;;;;;0.35;0.35;;;14.90;99.90;;;;;;5063951;28;20099;-59
2022/05/27 00:07:39;;;;;;;0.52;0.47;;;14.90;99.90;;;;;;5064638;28;20063;-59
2022/05/27 00:10:06;;;;;;;1.05;0.43;;;15.00;99.90;;;;;;5064376;28;20639;-59
2022/05/27 00:12:33;;;;;;;0.73;0.40;;;15.00;99.90;;;;;;5064435;28;20124;-59
2022/05/27 00:15:00;;;;;;;0.95;0.43;;;15.10;99.90;;;;;;5064609;28;20102;-59
2022/05/27 00:17:27;;;;;;;0.73;0.40;;;15.10;99.90;;;;;;5064380;28;20132;-59
2022/05/27 00:19:54;;;;;;;0.52;0.20;;;15.10;99.90;;;;;;5063754;28;20322;-59
2022/05/27 00:22:21;;;;;;;1.00;0.40;;;15.20;99.90;;;;;;5063874;28;20080;-59
2022/05/27 00:24:47;;;;;;;0.20;0.20;;;15.20;99.90;;;;;;5064266;28;20406;-59
2022/05/27 00:27:14;;;;;;;0.50;0.22;;;15.20;99.90;;;;;;5064521;28;20450;-59
2022/05/27 00:29:41;;;;;;;0.40;0.40;;;15.30;99.90;;;;;;5064677;28;20307;-59
2022/05/27 00:32:27;;;;;;;0.38;0.38;;;15.30;99.90;;;;;;5063658;28;20048;-59
2022/05/27 00:34:54;;;;;;;0.50;0.30;;;15.30;99.90;;;;;;5058213;28;20124;-59
2022/05/27 00:37:21;;;;;;;0.55;0.52;;;15.30;99.90;;;;;;5089429;28;20050;-59
2022/05/27 00:39:47;;;;;;;1.17;0.50;;;15.30;99.90;;;;;;5063507;28;20426;-59
2022/05/27 00:42:14;;;;;;;0.52;0.40;;;15.30;99.90;;;;;;5063415;28;20123;-60
2022/05/27 00:44:41;;;;;;;0.30;0.30;;;15.30;99.90;;;;;;5058875;28;20084;-59
2022/05/27 00:47:12;;;;;;;0.30;0.30;;;15.30;99.90;;;;;;5042990;28;20132;-60
2022/05/27 00:49:50;;;;;;;0.70;0.38;;;15.30;99.90;;;;;;5060649;28;20178;-59
2022/05/27 00:52:18;;;;;;;0.70;0.40;;;15.40;99.90;;;;;;5061517;28;20111;-60
2022/05/27 00:54:44;;;;;;;0.60;0.40;;;15.30;99.90;;;;;;5062441;28;20135;-59
2022/05/27 00:57:17;;;;;;;0.68;0.40;;;15.30;99.90;;;;;;5062572;28;20430;-60
2022/05/27 00:59:50;;;;;;;0.65;0.52;;;15.40;99.90;;;;;;5062609;28;20472;-59
2022/05/27 01:02:17;;;;;;;0.40;0.40;;;15.30;99.90;;;;;;5069362;28;20057;-59
2022/05/27 01:04:44;;;;;;;0.80;0.40;;;15.20;99.90;;;;;;5059086;28;20513;-59
2022/05/27 01:07:11;;;;;;;0.47;0.25;;;15.10;99.90;;;;;;5062144;28;20380;-59
2022/05/27 01:09:39;;;;;;;0.20;0.20;;;15.10;99.90;;;;;;5064116;28;20052;-58
2022/05/27 01:12:24;;;;;;;0.50;0.40;;;15.00;99.90;;;;;;5061690;28;20079;-59
2022/05/27 01:15:10;;;;;;;0.55;0.35;;;15.00;99.90;;;;;;5063102;28;20127;-59
2022/05/27 01:17:39;;;;;;;1.20;0.45;;;15.00;99.90;;;;;;5063256;28;20469;-60
2022/05/27 01:20:20;;;;;;;0.75;0.55;;;15.00;99.90;;;;;;5062852;28;20151;-60
2022/05/27 01:22:49;;;;;;;1.00;0.63;;;14.90;99.90;;;;;;5061338;28;20053;-59
2022/05/27 01:25:29;;;;;;;0.43;0.32;;;14.90;99.90;;;;;;5063425;28;20119;-59
2022/05/27 01:28:23;;;;;;;1.88;0.60;;;14.80;99.90;;;;;;5063782;28;20088;-60
2022/05/27 01:30:53;;;;;;;0.47;0.40;;;14.70;99.90;;;;;;5062559;28;20151;-59
2022/05/27 01:33:45;;;;;;;0.50;0.40;;;14.70;99.90;;;;;;5063625;28;20087;-60
2022/05/27 01:36:15;;;;;;;0.82;0.70;;;14.60;99.90;;;;;;5063584;28;20083;-59
2022/05/27 01:38:43;;;;;;;0.55;0.40;;;14.60;99.90;;;;;;5064612;28;20452;-59
2022/05/27 01:41:26;;;;;;;0.63;0.40;;;14.50;99.90;;;;;;5047533;28;20151;-60
2022/05/27 01:43:56;;;;;;;;;;;14.50;99.90;;;;;;5065372;28;20044;-60
2022/05/27 01:46:26;;;;;;;0.73;0.43;;;14.50;99.90;;;;;;5063205;28;19925;-59
2022/05/27 01:48:58;;;;;;;1.13;0.45;;;14.50;99.90;;;;;;5063424;28;20487;-59
2022/05/27 01:51:34;;;;;;;0.73;0.50;;;14.40;99.90;;;;;;5063036;28;20083;-59
2022/05/27 01:54:05;;;;;;;1.20;0.50;;;14.40;99.90;;;;;;5063630;28;20415;-59
2022/05/27 01:56:54;;;;;;;1.13;0.50;;;14.40;99.90;;;;;;5063717;28;20053;-59
2022/05/27 01:59:35;;;;;;;1.60;0.85;;;14.30;99.90;;;;;;5063959;28;20056;-59
2022/05/27 02:02:10;;;;;;;0.77;0.43;;;14.30;99.90;;;;;;5062585;28;20171;-59
2022/05/27 02:04:44;;;;;;;0.60;0.40;;;14.30;99.90;;;;;;5063897;28;20083;-59
2022/05/27 02:07:13;;;;;;;0.35;0.35;;;14.30;99.90;;;;;;5061979;28;20056;-59
2022/05/27 02:09:43;;;;;;;0.93;0.32;;;14.30;99.90;;;;;;5063291;28;20668;-59
2022/05/27 02:12:21;;;;;;;1.00;0.50;;;14.20;99.90;;;;;;5063170;28;20147;-59
2022/05/27 02:15:02;;;;;;;0.50;0.40;;;14.20;99.90;;;;;;5064177;28;20072;-59
2022/05/27 02:17:33;;;;;;;0.57;0.40;;;14.20;99.90;;;;;;5064550;28;20135;-59
2022/05/27 02:20:10;;;;;;;0.38;0.38;;;14.20;99.90;;;;;;5062843;28;20084;-59
2022/05/27 02:22:41;;;;;;;0.50;0.50;;;14.10;99.90;;;;;;5057792;28;20045;-58
2022/05/27 02:25:11;;;;;;;0.80;0.60;;;14.20;99.90;;;;;;5062873;28;20505;-59
2022/05/27 02:28:01;;;;;;;0.45;0.40;;;14.20;99.90;;;;;;5064560;28;20079;-60
2022/05/27 02:30:31;;;;;;;1.98;0.60;;;14.20;99.90;;;;;;5062470;28;20106;-57
2022/05/27 02:35:50;;;;;;;0.40;0.40;;;14.30;99.90;;;;;;5063515;28;20728;-59
2022/05/27 02:38:17;;;;;;;0.90;0.60;;;14.30;99.90;;;;;;5058729;28;20132;-59
2022/05/27 02:40:55;;;;;;;0.85;0.47;;;14.20;99.90;;;;;;5075489;28;20168;-59
2022/05/27 02:43:28;;;;;;;0.80;0.60;;;14.10;99.90;;;;;;5054757;28;20456;-59
2022/05/27 02:46:19;;;;;;;0.70;0.60;;;14.10;99.90;;;;;;5063302;28;20114;-59
2022/05/27 02:48:58;;;;;;;0.68;0.60;;;14.10;99.90;;;;;;5065131;28;20040;-59
2022/05/27 02:51:51;;;;;;;0.63;0.60;;;14.00;99.90;;;;;;5062747;28;20144;-59
2022/05/27 02:54:24;;;;;;;0.40;0.40;;;14.00;99.90;;;;;;5062373;28;20135;-60
2022/05/27 02:57:24;;;;;;;1.02;0.60;;;14.00;99.90;;;;;;5063061;28;20465;-59
2022/05/27 02:59:51;;;;;;;0.80;0.60;;;13.90;99.90;;;;;;5063395;28;20495;-60
2022/05/27 03:02:18;;;;;;;1.23;0.80;;;13.90;99.90;;;;;;5061808;28;20072;-60
2022/05/27 03:04:54;;;;;;;0.68;0.60;;;13.90;99.90;;;;;;5063779;28;20083;-60
2022/05/27 03:07:59;;;;;;;0.95;0.70;;;13.80;99.90;;;;;;5045031;28;20049;-59
2022/05/27 03:11:03;;;;;;;0.70;0.57;;;13.80;99.90;;;;;;5001257;28;20098;-59
2022/05/27 03:13:50;;;;;;;;;;;13.80;99.90;;;;;;5002709;28;20042;-59
2022/05/27 03:16:38;;;;;;;1.05;0.57;;;13.80;99.90;;;;;;5056023;28;19974;-60
2022/05/27 03:19:34;;;;;;;2.17;0.90;;;13.80;99.90;;;;;;5065181;28;20131;-59
2022/05/27 03:22:23;;;;;;;2.60;0.77;;;13.70;99.90;;;;;;5063896;28;20518;-60
2022/05/27 03:24:53;;;;;;;1.25;0.68;;;13.80;99.90;;;;;;5045109;28;20621;-59
2022/05/27 03:27:44;;;;;;;1.13;1.00;;;13.70;99.90;;;;;;5045276;28;20170;-59
2022/05/27 03:30:13;;;;;;;1.30;0.60;;;13.70;99.90;;;;;;5064512;28;20424;-59
2022/05/27 03:32:46;;;;;;;1.48;0.82;;;13.70;99.90;;;;;;5067284;28;20072;-59
2022/05/27 03:35:35;;;;;;;1.75;0.82;;;13.70;99.90;;;;;;5066672;28;20143;-60
2022/05/27 03:38:01;;;;;;;1.13;0.63;;;13.70;99.90;;;;;;5067326;28;20080;-59
2022/05/27 03:40:35;;;;;;;0.75;0.60;;;13.70;99.90;;;;;;5069222;28;20525;-59
2022/05/27 03:43:02;;;;;;;0.80;0.70;;;13.60;99.90;;;;;;5068919;28;20089;-59
2022/05/27 03:45:29;;;;;;;0.88;0.60;;;13.60;99.90;;;;;;5068012;28;20092;-60
2022/05/27 03:47:56;;;;;;;1.50;0.90;;;13.60;99.90;;;;;;5068770;28;20079;-60
2022/05/27 03:50:24;;;;;;;0.68;0.52;;;13.60;99.90;;;;;;5068053;28;20061;-60
2022/05/27 03:52:52;;;;;;;0.85;0.77;;;13.60;99.90;;;;;;5066633;28;20094;-59
2022/05/27 03:55:22;;;;;;;0.63;0.60;;;13.60;99.90;;;;;;5067343;28;20482;-59
2022/05/27 03:57:49;;;;;;;0.73;0.50;;;13.50;99.90;;;;;;5068798;28;20765;-59
2022/05/27 04:00:16;;;;;;;0.93;0.60;;;13.50;99.90;;;;;;5068125;28;20135;-60
2022/05/27 04:02:43;;;;;;;0.88;0.60;;;13.50;99.90;;;;;;5067456;28;20140;-60
2022/05/27 04:05:12;;;;;;;0.70;0.60;;;13.50;99.90;;;;;;5067333;28;20159;-59
2022/05/27 04:07:38;;;;;;;0.70;0.50;;;13.50;99.90;;;;;;5067704;28;20052;-59
2022/05/27 04:10:08;;;;;;;0.77;0.50;;;13.50;99.90;;;;;;5068599;28;20135;-59
2022/05/27 04:12:36;;;;;;;0.75;0.60;;;13.50;99.90;;;;;;5068170;28;20106;-59
2022/05/27 04:15:04;;;;;;;1.08;0.77;;;13.50;99.90;;;;;;5068232;28;20102;-60
2022/05/27 04:17:30;;;;;;;1.10;0.70;;;13.50;99.90;;;;;;5067956;28;20050;-59
2022/05/27 04:20:14;;;;;;;1.30;0.73;;;13.50;99.90;;;;;;5067668;28;20531;-59
2022/05/27 04:22:41;;;;;;;1.20;0.70;;;13.50;99.90;;;;;;5067563;28;20080;-59
2022/05/27 04:25:11;;;;;;;1.02;0.70;;;13.50;99.90;;;;;;5068020;28;20071;-59
2022/05/27 04:27:38;;;;;;;1.05;0.75;;;13.50;99.90;;;;;;5066548;28;20082;-60
2022/05/27 04:30:06;;;;;;;1.13;0.90;;;13.50;99.90;;;;;;5067682;28;20059;-59
2022/05/27 04:32:33;;;;;;;0.77;0.70;;;13.50;99.90;;;;;;5066869;28;20072;-60
2022/05/27 04:35:00;;;;;;;1.13;0.70;;;13.50;99.90;;;;;;5067356;28;20163;-59
2022/05/27 04:37:27;;;;;;;0.70;0.70;;;13.50;99.90;;;;;;5066794;28;20040;-59
2022/05/27 04:39:53;;;;;;;1.23;0.60;;;13.50;99.90;;;;;;5067613;28;20088;-59
2022/05/27 04:42:20;;;;;;;0.75;0.60;;;13.50;99.90;;;;;;5068036;28;20083;-60
2022/05/27 04:44:47;;;;;;;0.90;0.60;;;13.50;99.90;;;;;;5067671;28;20147;-59
2022/05/27 04:47:14;;;;;;;0.95;0.60;;;13.50;99.90;;;;;;5066755;28;20059;-60
2022/05/27 04:49:58;;;;;;;1.00;0.75;;;13.60;99.90;;;;;;5062005;28;20048;-59
2022/05/27 04:52:27;;;;;;;0.52;0.52;;;13.60;99.90;;;;;;5062725;28;20121;-59
2022/05/27 04:54:54;;;;;;;0.68;0.60;;;13.60;99.90;;;;;;5063025;28;20548;-59
2022/05/27 04:57:23;;;;;;;1.15;0.57;;;13.60;99.90;;;;;;5051019;28;20053;-59
2022/05/27 04:59:50;;;;;;;1.17;0.65;;;13.60;99.90;;;;;;5051197;28;20044;-59
2022/05/27 05:02:20;;;;;;;0.93;0.75;;;13.60;99.90;;;;;;5050596;28;20106;-59
2022/05/27 05:04:47;;;;;;;0.95;0.63;;;13.60;99.90;;;;;;5050194;28;20547;-59
2022/05/27 05:07:14;;;;;;;1.02;0.80;;;13.70;99.90;;;;;;5063065;28;20076;-59
2022/05/27 05:09:41;;;;;;;1.15;0.90;;;13.70;99.90;;;;;;5063707;28;20260;-59
2022/05/27 05:12:09;;;;;;;1.58;0.95;;;13.70;99.90;;;;;;5062720;28;20083;-59
2022/05/27 05:14:36;;;;;;;1.42;0.95;;;13.70;99.90;;;;;;5059698;28;20044;-57
2022/05/27 05:17:03;;;;;;;0.90;0.70;;;13.80;99.90;;;;;;5060567;28;20698;-59
2022/05/27 05:19:30;;;;;;;0.80;0.77;;;13.80;99.90;;;;;;5065207;28;20135;-59
2022/05/27 05:21:56;;;;;;;1.38;0.75;;;13.80;99.90;;;;;;5060188;28;20437;-58
2022/05/27 05:24:23;;;;;;;1.17;0.95;;;13.90;99.90;;;;;;5044517;28;20602;-59
2022/05/27 05:26:50;;;;;;;1.55;0.75;;;13.90;99.90;;;;;;5055256;28;20052;-59
2022/05/27 05:29:16;;;;;;;0.95;0.70;;;13.90;99.90;;;;;;5059603;28;20052;-59
2022/05/27 05:31:43;;;;;;;1.45;0.90;;;13.90;99.90;;;;;;5058680;28;20053;-59
2022/05/27 05:34:10;;;;;;;1.10;0.73;;;13.90;99.90;;;;;;5059579;28;20076;-59
2022/05/27 05:36:37;;;;;;;1.38;1.00;;;13.90;99.90;;;;;;5057837;28;20532;-59
2022/05/27 05:39:04;;;;;;;1.60;0.73;;;13.90;99.90;;;;;;5058193;28;20098;-59
2022/05/27 05:41:35;;;;;;;1.25;0.90;;;13.90;99.90;;;;;;5059315;28;20136;-59
2022/05/27 05:44:02;;;;;;;1.88;1.00;;;14.00;99.90;;;;;;5049023;28;20144;-59
2022/05/27 05:46:30;;;;;;;1.10;0.90;;;14.00;99.90;;;;;;5055248;28;20424;-58
2022/05/27 05:48:57;;;;;;;1.20;0.90;;;14.00;99.90;;;;;;5074626;28;20058;-59
2022/05/27 05:51:24;;;;;;;1.58;1.02;;;14.10;99.90;;;;;;5056967;28;20143;-59
2022/05/27 05:53:51;;;;;;;2.58;1.20;;;14.20;99.90;;;;;;5058455;28;20468;-59
2022/05/27 05:56:17;;;;;;;2.70;1.63;;;14.40;99.90;;;;;;5047817;28;20080;-59
2022/05/27 05:58:44;;;;;;;1.80;1.40;;;14.50;99.90;;;;;;5054549;28;20690;-59
2022/05/27 06:01:11;;;;;;;3.20;1.50;;;14.60;99.90;;;;;;5056855;28;20109;-60
2022/05/27 06:03:38;;;;;;;2.42;1.33;;;14.70;99.90;;;;;;5059554;28;20113;-59
2022/05/27 06:06:05;;;;;;;1.60;1.13;;;14.70;99.90;;;;;;5058151;28;20056;-59
2022/05/27 06:08:32;;;;;;;1.27;0.93;;;14.70;99.90;;;;;;5057959;28;20052;-59
2022/05/27 06:10:59;;;;;;;1.70;1.40;;;14.80;99.90;;;;;;5059430;28;20118;-59
2022/05/27 06:13:26;;;;;;;1.90;1.35;;;14.80;99.90;;;;;;5056105;28;20078;-59
2022/05/27 06:15:53;;;;;;;3.17;1.40;;;14.80;99.90;;;;;;5061171;28;20062;-59
2022/05/27 06:18:20;;;;;;;2.35;1.30;;;14.90;99.90;;;;;;5058842;28;20143;-59
2022/05/27 06:20:47;;;;;;;2.85;1.30;;;14.90;99.90;;;;;;5058481;28;20079;-59
2022/05/27 06:23:14;;;;;;;3.05;1.58;;;15.00;99.90;;;;;;5058550;28;20064;-59
2022/05/27 06:25:41;;;;;;;1.85;1.40;;;15.00;99.90;;;;;;5059097;28;20076;-59
2022/05/27 06:36:24;;;;;;;2.25;1.55;;;15.00;99.90;;;;;;5038130;28;20092;-59
2022/05/27 06:38:51;;;;;;;3.05;1.38;;;15.00;99.90;;;;;;5054803;28;20453;-59
2022/05/27 06:41:17;;;;;;;1.75;0.93;;;15.10;99.90;;;;;;5053147;28;20088;-59
2022/05/27 06:43:45;;;;;;;2.70;1.40;;;15.30;99.90;;;;;;5053821;28;20556;-59
2022/05/27 06:46:13;;;;;;;1.83;1.30;;;15.30;99.90;;;;;;5057833;28;20068;-59
2022/05/27 06:48:40;;;;;;;2.20;1.10;;;15.50;99.90;;;;;;5059011;28;20080;-59
2022/05/27 06:51:07;;;;;;;3.38;1.17;;;15.60;99.90;;;;;;5057805;28;20131;-59
2022/05/27 06:53:34;;;;;;;2.88;1.50;;;15.60;99.90;;;;;;5057769;28;20048;-59
2022/05/27 06:56:01;;;;;;;3.97;1.65;;;15.60;99.90;;;;;;5058756;28;20079;-59
2022/05/27 06:58:28;;;;;;;3.25;1.70;;;15.60;99.90;;;;;;5075264;28;20069;-59
2022/05/27 07:00:54;;;;;;;1.85;1.30;;;15.50;99.90;;;;;;5056281;28;20131;-59
2022/05/27 07:03:21;;;;;;;3.17;1.60;;;15.50;99.90;;;;;;5058383;28;20051;-59
2022/05/27 07:05:48;;;;;;;3.03;1.40;;;15.60;99.90;;;;;;5059062;28;20143;-59
2022/05/27 07:08:15;;;;;;;3.17;1.88;;;15.60;99.90;;;;;;5053201;28;20131;-59
2022/05/27 07:10:41;;;;;;;2.63;1.20;;;15.50;99.90;;;;;;5053420;28;20139;-59
2022/05/27 07:13:08;;;;;;;2.20;1.13;;;15.60;99.90;;;;;;5052178;28;20092;-59
2022/05/27 07:15:35;;;;;;;2.83;1.50;;;15.60;99.90;;;;;;5062111;28;20132;-59
2022/05/27 07:18:04;;;;;;;2.97;1.30;;;15.50;99.90;;;;;;5060323;28;20515;-59
2022/05/27 07:20:31;;;;;;;3.75;1.20;;;15.50;99.90;;;;;;5061273;28;20285;-59
2022/05/27 07:22:58;;;;;;;3.60;1.50;;;15.50;99.90;;;;;;5069293;28;20135;-59
2022/05/27 07:25:24;;;;;;;2.47;1.00;;;15.40;99.90;;;;;;5081145;28;20091;-59
2022/05/27 07:27:51;;;;;;;2.28;1.15;;;15.40;99.90;;;;;;5071315;28;20143;-59
2022/05/27 07:30:18;;;;;;;4.20;1.60;;;15.40;99.90;;;;;;5061294;28;20099;-59
2022/05/27 07:32:45;;;;;;;4.88;1.88;;;15.40;99.90;;;;;;5062894;28;20127;-59
2022/05/27 07:35:12;;;;;;;4.75;1.92;;;15.40;99.90;;;;;;5042256;28;20411;-59
2022/05/27 07:37:39;;;;;;;3.72;1.52;;;15.40;99.90;;;;;;5058734;28;20083;-59
2022/05/27 07:40:06;;;;;;;2.33;1.30;;;15.40;99.90;;;;;;5065391;28;20150;-59
2022/05/27 07:42:32;;;;;;;2.60;1.35;;;15.60;99.90;;;;;;5049840;28;20140;-63
2022/05/27 07:44:59;;;;;;;3.55;1.80;;;15.80;99.90;;;;;;5061885;28;21016;-59
2022/05/27 07:47:27;;;;;;;3.10;1.30;;;15.80;99.90;;;;;;5061658;28;20072;-59
2022/05/27 07:49:53;;;;;;;2.42;1.55;;;15.90;99.90;;;;;;5058396;28;20214;-59
2022/05/27 07:52:20;;;;;;;2.75;1.50;;;16.00;99.90;;;;;;5058301;28;20119;-59
2022/05/27 07:54:47;;;;;;;4.75;2.13;;;16.00;99.90;;;;;;5059993;28;20427;-59
2022/05/27 07:57:23;;;;;;;4.10;1.98;;;16.00;99.90;;;;;;5040759;28;20067;-58
2022/05/27 08:00:01;;;;;;;2.85;1.70;;;15.90;99.90;;;;;;5054166;28;20338;-59
2022/05/27 08:02:27;;;;;;;2.22;1.30;;;15.90;99.90;;;;;;5059253;28;20053;-59
2022/05/27 08:04:54;;;;;;;4.03;1.58;;;16.00;99.90;;;;;;5060768;28;20818;-58
2022/05/27 08:07:21;;;;;;;2.47;1.48;;;16.00;99.90;;;;;;5060697;28;20045;-59
2022/05/27 08:09:48;;;;;;;2.95;1.38;;;16.10;99.90;;;;;;5061520;28;20052;-58
2022/05/27 08:12:15;;;;;;;3.78;1.70;;;16.10;99.90;;;;;;5061779;28;20143;-59
2022/05/27 08:14:42;;;;;;;3.63;1.60;;;16.10;99.90;;;;;;5059773;28;20163;-59
2022/05/27 08:17:09;;;;;;;5.80;2.30;;;16.30;99.90;;;;;;5060551;28;20133;-59
2022/05/27 08:19:36;;;;;;;3.38;1.40;;;16.40;99.90;;;;;;5061512;28;20386;-59
2022/05/27 08:22:04;;;;;;;3.85;2.22;;;16.50;99.90;;;;;;5059572;28;20855;-59
2022/05/27 08:24:31;;;;;;;5.32;2.05;;;16.60;99.90;;;;;;5061063;28;20953;-59
2022/05/27 08:26:57;;;;;;;4.50;1.83;;;16.50;99.90;;;;;;5060552;28;20194;-59
2022/05/27 08:29:25;;;;;;;3.13;1.52;;;16.50;99.90;;;;;;5060714;28;20099;-59
2022/05/27 08:31:51;;;;;;;3.60;1.70;;;16.70;99.90;;;;;;5060559;28;20259;-59
2022/05/27 08:39:49;;;;;;;4.57;1.90;;;16.70;99.90;;;;;;5060253;28;20131;-59
2022/05/27 08:42:57;;;;;;;3.30;1.27;;;16.80;99.90;;;;;;5058976;28;20159;-60
2022/05/27 08:45:59;;;;;;;3.42;2.05;;;16.80;99.90;;;;;;5058495;28;20064;-59
2022/05/27 08:48:26;;;;;;;4.93;1.83;;;16.90;99.90;;;;;;5061929;28;20596;-59
2022/05/27 08:50:56;;;;;;;3.95;1.85;;;16.80;99.90;;;;;;5057861;28;20180;-60
2022/05/27 08:53:46;;;;;;;3.63;2.13;;;16.80;99.90;;;;;;5057962;28;20102;-59
2022/05/27 08:59:34;;;;;;;5.00;1.98;;;16.80;99.90;;;;;;5048104;28;20056;-59
2022/05/27 09:02:02;;;;;;;;;;;17.00;99.90;;;;;;5063488;28;20460;-59
2022/05/27 09:04:44;;;;;;;4.50;1.90;;;17.10;99.90;;;;;;5056993;28;19924;-59
2022/05/27 09:07:35;;;;;;;2.90;1.80;;;17.20;99.90;;;;;;5056998;28;20089;-59
2022/05/27 09:10:06;;;;;;;2.95;1.50;;;17.40;99.90;;;;;;5053516;28;20060;-59
2022/05/27 09:12:46;;;;;;;3.53;1.60;;;17.40;99.90;;;;;;5059951;28;20131;-59
2022/05/27 09:15:36;;;;;;;3.38;1.50;;;17.40;99.90;;;;;;5056817;28;20670;-59
2022/05/27 09:18:07;;;;;;;3.05;1.50;;;17.30;99.90;;;;;;5061259;28;20060;-59
2022/05/27 09:20:42;;;;;;;4.32;1.60;;;17.10;99.90;;;;;;5050471;28;20053;-60
2022/05/27 09:23:13;;;;;;;5.10;1.85;;;17.10;99.90;;;;;;5068081;28;20119;-59
2022/05/27 09:26:02;;;;;;;5.60;2.05;;;17.00;99.90;;;;;;5055140;28;20053;-59
2022/05/27 09:28:37;;;;;;;3.50;1.77;;;16.80;99.90;;;;;;5059713;28;20090;-59
2022/05/27 09:31:05;;;;;;;3.92;1.77;;;16.60;99.90;;;;;;5079579;28;20196;-59
2022/05/27 09:33:32;;;;;;;5.10;1.83;;;16.40;99.90;;;;;;5052170;28;20052;-59
2022/05/27 09:36:10;;;;;;;4.95;2.13;;;16.30;99.90;;;;;;5060895;28;20080;-59
2022/05/27 09:38:43;;;;;;;3.60;1.50;;;16.40;99.90;;;;;;5077737;28;20051;-59
2022/05/27 09:41:26;;;;;;;4.35;1.73;;;16.60;99.90;;;;;;5081857;28;20137;-59
2022/05/27 09:44:04;;;;;;;4.93;2.08;;;16.70;99.90;;;;;;5070931;28;20130;-59
2022/05/27 09:46:30;;;;;;;3.78;1.75;;;16.80;99.90;;;;;;5066267;28;20084;-59
2022/05/27 09:48:58;;;;;;;6.13;1.80;;;16.80;99.90;;;;;;5078840;28;20080;-59
2022/05/27 09:51:26;;;;;;;3.25;1.70;;;16.70;99.90;;;;;;5054111;28;20163;-59
2022/05/27 09:53:54;;;;;;;4.55;1.65;;;16.80;99.90;;;;;;5059191;28;20044;-59
2022/05/27 09:56:41;;;;;;;4.97;2.00;;;16.90;99.90;;;;;;5081340;28;20668;-59
2022/05/27 09:59:23;;;;;;;7.05;2.60;;;16.70;99.90;;;;;;5054189;28;20058;-59
2022/05/27 10:01:49;;;;;;;5.15;2.15;;;16.60;99.90;;;;;;5083064;28;20135;-59
2022/05/27 10:04:17;;;;;;;4.10;1.75;;;16.60;99.90;;;;;;5069319;28;20078;-59
2022/05/27 10:06:44;;;;;;;5.82;1.63;;;16.80;99.90;;;;;;5083677;28;20149;-58
2022/05/27 10:09:33;;;;;;;3.25;1.60;;;16.80;99.90;;;;;;5071338;28;20055;-59
2022/05/27 10:12:00;;;;;;;3.60;1.65;;;16.70;99.90;;;;;;5055923;28;20056;-59
2022/05/27 10:14:28;;;;;;;2.97;1.50;;;16.70;99.90;;;;;;5065284;28;20469;-59
2022/05/27 10:17:12;;;;;;;3.95;1.67;;;16.70;99.90;;;;;;5064573;28;20106;-59
2022/05/27 10:19:46;;;;;;;3.83;1.50;;;16.70;99.90;;;;;;5065494;28;20055;-59
2022/05/27 10:22:26;;;;;;;3.70;1.90;;;16.80;99.90;;;;;;5075661;28;20083;-59
2022/05/27 10:25:01;;;;;;;7.85;2.42;;;16.80;99.90;;;;;;5056671;28;20132;-59
2022/05/27 10:27:33;;;;;;;4.90;1.63;;;16.80;99.90;;;;;;5057018;28;20041;-59
2022/05/27 10:30:08;;;;;;;4.90;1.63;;;16.90;99.90;;;;;;5054879;28;20088;-58
2022/05/27 10:32:42;;;;;;;6.45;2.30;;;17.10;99.90;;;;;;5060491;28;20052;-58
2022/05/27 10:35:21;;;;;;;4.18;1.80;;;17.10;99.90;;;;;;5065385;28;20075;-57
2022/05/27 10:38:25;;;;;;;5.32;1.80;;;17.20;99.90;;;;;;5076573;28;21002;-59
2022/05/27 10:40:58;;;;;;;4.95;1.83;;;17.20;99.90;;;;;;5067817;28;21273;-58
2022/05/27 10:43:54;;;;;;;5.75;2.28;;;17.30;99.90;;;;;;5054789;28;20048;-58
2022/05/27 10:46:30;;;;;;;4.63;2.03;;;17.20;99.90;;;;;;5068206;28;20080;-58
2022/05/27 10:49:13;;;;;;;4.53;2.00;;;17.20;99.90;;;;;;5041994;28;20076;-58
2022/05/27 10:52:05;;;;;;;3.45;1.58;;;17.20;99.90;;;;;;5070141;28;20048;-58
2022/05/27 10:54:50;;;;;;;3.97;1.70;;;17.20;99.70;;;;;;5059490;28;20128;-58
2022/05/27 11:04:06;;;;;;;4.45;2.28;;;17.20;98.80;;;;;;5046495;28;20071;-58
2022/05/27 11:06:59;;;;;;;3.10;1.55;;;17.30;98.30;;;;;;5067738;28;20843;-57
2022/05/27 11:09:49;;;;;;;4.68;1.75;;;17.50;98.70;;;;;;5054379;28;20152;-58
2022/05/27 11:15:34;;;;;;;7.28;2.30;;;17.60;97.50;;;;;;5037520;28;20122;-58
2022/05/27 11:18:12;;;;;;;3.95;1.73;;;17.80;97.60;;;;;;5053783;28;20584;-57
2022/05/27 11:20:40;;;;;;;5.60;2.20;;;18.00;97.90;;;;;;5062114;28;20131;-57
2022/05/27 11:23:16;;;;;;;3.85;1.52;;;18.10;97.40;;;;;;5069503;28;20138;-58
2022/05/27 11:26:01;;;;;;;7.32;2.38;;;18.40;96.90;;;;;;5050331;28;20076;-58
2022/05/27 11:29:00;;;;;;;5.90;2.25;;;18.50;97.00;;;;;;5047207;28;20084;-58
2022/05/27 11:31:27;;;;;;;6.07;2.58;;;18.70;96.40;;;;;;5056651;28;20377;-57
2022/05/27 11:34:00;;;;;;;3.67;1.27;;;18.90;97.00;;;;;;5058117;28;20056;-58
2022/05/27 11:36:30;;;;;;;4.57;2.05;;;19.10;94.60;;;;;;5057704;28;20203;-58
2022/05/27 11:39:14;;;;;;;2.03;1.33;;;19.20;94.70;;;;;;5058289;28;20076;-58
2022/05/27 11:41:57;;;;;;;3.92;1.60;;;19.30;95.00;;;;;;5052827;28;20058;-58
2022/05/27 11:44:34;;;;;;;3.10;1.45;;;19.50;94.40;;;;;;5050732;28;20515;-58
2022/05/27 11:47:06;;;;;;;3.72;1.75;;;19.70;94.40;;;;;;5038537;28;20139;-58
2022/05/27 11:50:01;;;;;;;1.77;1.05;;;19.80;93.30;;;;;;5046016;28;20058;-58
2022/05/27 11:52:56;;;;;;;4.55;2.05;;;20.10;92.90;;;;;;5045950;28;20056;-58
2022/05/27 11:56:07;;;;;;;6.20;2.00;;;20.10;93.60;;;;;;5052173;28;20053;-57
2022/05/27 11:59:11;;;;;;;2.97;1.60;;;20.30;92.50;;;;;;5084743;28;20057;-58
2022/05/27 12:01:43;;;;;;;4.25;1.42;;;20.50;92.60;;;;;;5042031;28;20121;-58
2022/05/27 12:04:17;;;;;;;4.82;2.00;;;20.90;92.80;;;;;;5062697;28;20128;-60
2022/05/27 12:06:57;;;;;;;5.47;2.08;;;21.10;92.30;;;;;;5052216;28;20056;-59
2022/05/27 12:09:36;;;;;;;4.20;1.75;;;21.20;90.70;;;;;;5072571;28;20812;-58
2022/05/27 12:12:24;;;;;;;3.63;1.65;;;21.20;90.70;;;;;;5077029;28;20060;-59
2022/05/27 12:14:56;;;;;;;4.32;1.85;;;21.30;90.20;;;;;;5064407;28;20466;-58
2022/05/27 12:17:25;;;;;;;5.03;1.70;;;21.20;89.30;;;;;;5061349;28;20097;-58
2022/05/27 12:19:57;;;;;;;4.32;1.80;;;21.60;90.30;;;;;;5051525;28;20107;-58
2022/05/27 12:22:27;;;;;;;3.23;1.67;;;21.70;87.50;;;;;;5057308;28;20049;-58
2022/05/27 12:24:56;;;;;;;4.20;2.05;;;21.80;88.10;;;;;;5064139;28;20395;-57
2022/05/27 12:27:23;;;;;;;4.05;1.52;;;22.00;88.70;;;;;;5062795;28;20127;-58
2022/05/27 12:29:50;;;;;;;2.20;1.40;;;22.00;86.80;;;;;;5080328;28;20574;-58
2022/05/27 12:32:18;;;;;;;3.97;1.60;;;22.30;88.70;;;;;;5061898;28;20768;-58
2022/05/27 12:34:48;;;;;;;3.92;1.80;;;22.50;84.90;;;;;;5062115;28;20617;-58
2022/05/27 12:37:20;;;;;;;3.75;1.70;;;22.60;83.00;;;;;;5061699;28;20048;-58
2022/05/27 12:39:48;;;;;;;2.08;1.20;;;22.60;82.50;;;;;;5062583;28;20712;-58
2022/05/27 12:42:24;;;;;;;1.65;1.20;;;22.90;80.80;;;;;;5048972;28;20067;-58
2022/05/27 12:44:51;;;;;;;3.20;1.40;;;23.30;80.10;;;;;;5049376;28;20131;-59
2022/05/27 12:47:28;;;;;;;3.55;1.77;;;23.30;81.10;;;;;;5058408;28;20055;-58
2022/05/27 12:50:03;;;;;;;3.08;1.13;;;23.40;77.00;;;;;;5046429;28;20061;-58
2022/05/27 12:52:30;;;;;;;3.95;1.45;;;23.50;76.70;;;;;;5060772;28;20048;-58
2022/05/27 12:54:56;;;;;;;5.20;2.10;;;23.50;77.70;;;;;;5057851;28;20041;-58
2022/05/27 13:03:33;;;;;;;3.95;1.88;;;23.70;74.90;;;;;;5057869;28;20178;-59
2022/05/27 13:06:17;;;;;;;3.42;1.80;;;24.40;75.20;;;;;;5062782;28;20083;-59
2022/05/27 13:08:50;;;;;;;2.65;1.63;;;24.50;74.30;;;;;;5063519;28;20141;-59
2022/05/27 13:11:23;;;;;;;3.58;1.65;;;24.70;73.50;;;;;;5063170;28;20691;-59
2022/05/27 13:13:51;;;;;;;5.25;2.38;;;24.70;72.60;;;;;;5056124;28;20080;-58
2022/05/27 13:17:06;;;;;;;3.33;1.75;;;24.50;72.10;;;;;;5054486;28;20041;-58
2022/05/27 13:19:42;;;;;;;4.53;1.83;;;24.60;71.70;;;;;;5079054;28;20207;-57
2022/05/27 13:22:12;;;;;;;3.65;1.77;;;24.90;69.80;;;;;;5061327;28;20472;-59
2022/05/27 13:24:44;;;;;;;3.25;1.33;;;25.10;65.40;;;;;;5074747;28;20550;-57
2022/05/27 13:27:16;;;;;;;4.28;1.70;;;24.80;66.30;;;;;;5063274;28;20056;-58
2022/05/27 13:29:49;;;;;;;4.00;2.03;;;24.50;66.00;;;;;;5045402;28;20102;-57
2022/05/27 13:32:19;;;;;;;3.75;1.65;;;24.70;66.50;;;;;;5061336;28;20064;-57
2022/05/27 13:34:57;;;;;;;3.15;1.67;;;24.40;66.00;;;;;;5063115;28;20771;-58
2022/05/27 13:37:39;;;;;;;2.72;0.98;;;24.90;66.10;;;;;;5075907;28;20218;-58
2022/05/27 13:40:08;;;;;;;2.80;1.05;;;25.50;64.90;;;;;;5073104;28;20102;-58
2022/05/27 13:42:37;;;;;;;2.47;1.30;;;25.90;63.70;;;;;;5063028;28;20145;-58
2022/05/27 13:45:11;;;;;;;2.75;1.58;;;26.20;63.40;;;;;;5075061;28;20054;-58
2022/05/27 13:48:16;;;;;;;3.05;1.42;;;26.40;62.00;;;;;;5065677;28;20049;-58
2022/05/27 13:50:44;;;;;;;3.45;1.27;;;26.60;63.40;;;;;;5058301;28;20048;-58
2022/05/27 13:53:27;;;;;;;2.40;1.17;;;26.80;61.00;;;;;;5065939;28;20133;-58